Time;durP1;ratioP1;P1;durP2;ratioP2;P2;SDS_P1;SDS_P2;PMS_P1;PMS_P2;Temp;Humidity;BMP_temperature;BMP_pressure;BME280_temperature;BME280_humidity;BME280_pressure;Samples;Min_cycle;Max_cycle;Signal;HPM_P1;HPM_P2
2023/04/19 00:01:35;;;;;;;11.07;8.87;;;8.20;99.90;;;;;;5010059;28;20052;-80
2023/04/19 00:04:02;;;;;;;11.10;8.57;;;8.10;99.90;;;;;;4997574;28;20056;-80
2023/04/19 00:06:29;;;;;;;13.43;9.53;;;8.10;99.90;;;;;;5012183;28;20169;-80
2023/04/19 00:08:56;;;;;;;14.47;8.80;;;8.10;99.90;;;;;;5017330;28;20080;-79
2023/04/19 00:11:22;;;;;;;11.23;8.77;;;8.10;99.90;;;;;;5023875;28;20078;-79
2023/04/19 00:13:48;;;;;;;11.50;8.67;;;8.10;99.90;;;;;;5010244;28;20121;-79
2023/04/19 00:16:14;;;;;;;12.70;9.47;;;8.10;99.90;;;;;;5010588;28;20121;-79
2023/04/19 00:18:40;;;;;;;11.83;9.07;;;8.10;99.90;;;;;;5000407;28;20088;-80
2023/04/19 00:21:06;;;;;;;11.53;9.40;;;8.10;99.90;;;;;;5027848;28;20480;-79
2023/04/19 00:23:32;;;;;;;12.70;9.03;;;8.00;99.90;;;;;;5033949;28;20084;-79
2023/04/19 00:25:57;;;;;;;15.00;9.77;;;8.00;99.90;;;;;;5022412;28;20045;-77
2023/04/19 00:28:24;;;;;;;15.33;9.77;;;8.00;99.90;;;;;;5001858;28;20034;-77
2023/04/19 00:30:50;;;;;;;14.27;10.80;;;8.00;99.90;;;;;;5003611;28;20046;-77
2023/04/19 00:33:16;;;;;;;15.93;11.13;;;8.00;99.90;;;;;;5014038;28;20069;-77
2023/04/19 00:35:42;;;;;;;16.13;11.93;;;8.00;99.90;;;;;;5015657;28;20054;-77
2023/04/19 00:38:07;;;;;;;17.60;12.77;;;8.00;99.90;;;;;;4997103;28;20125;-77
2023/04/19 00:40:33;;;;;;;15.77;11.63;;;8.00;99.90;;;;;;5014019;28;20041;-77
2023/04/19 00:42:59;;;;;;;17.43;12.27;;;8.00;99.90;;;;;;5016006;28;20111;-77
2023/04/19 00:45:25;;;;;;;16.77;12.07;;;8.00;99.90;;;;;;4995305;28;20092;-77
2023/04/19 00:47:52;;;;;;;14.20;10.80;;;7.90;99.90;;;;;;5013812;28;20042;-77
2023/04/19 00:50:18;;;;;;;14.57;11.23;;;7.90;99.90;;;;;;5019312;28;20034;-77
2023/04/19 00:52:45;;;;;;;14.03;10.07;;;7.90;99.90;;;;;;5022027;28;20493;-77
2023/04/19 00:55:11;;;;;;;14.93;10.30;;;7.90;99.90;;;;;;5018490;28;20042;-77
2023/04/19 00:57:39;;;;;;;15.03;10.20;;;7.90;99.90;;;;;;5013144;28;20533;-77
2023/04/19 01:00:07;;;;;;;13.00;10.20;;;7.90;99.90;;;;;;5012087;28;20088;-77
2023/04/19 01:02:33;;;;;;;15.00;10.07;;;7.90;99.90;;;;;;5013982;28;20045;-77
2023/04/19 01:04:59;;;;;;;12.03;9.93;;;7.90;99.90;;;;;;5015479;28;20046;-78
2023/04/19 01:07:25;;;;;;;12.83;9.43;;;7.90;99.90;;;;;;4982020;28;20045;-78
2023/04/19 01:09:51;;;;;;;13.37;8.90;;;7.80;99.90;;;;;;5020257;28;20472;-76
2023/04/19 01:12:16;;;;;;;14.00;9.33;;;7.80;99.90;;;;;;4997093;28;20041;-77
2023/04/19 01:14:43;;;;;;;12.83;9.37;;;7.80;99.90;;;;;;5032181;28;20029;-76
2023/04/19 01:17:09;;;;;;;15.50;9.33;;;7.80;99.90;;;;;;5002393;28;20431;-78
2023/04/19 01:19:35;;;;;;;14.17;9.70;;;7.80;99.90;;;;;;5013988;28;20045;-77
2023/04/19 01:22:02;;;;;;;13.13;9.90;;;7.80;99.90;;;;;;5011716;28;20038;-78
2023/04/19 01:24:29;;;;;;;12.63;9.40;;;7.70;99.90;;;;;;5011124;28;20111;-77
2023/04/19 01:26:55;;;;;;;13.37;9.73;;;7.70;99.90;;;;;;5012619;28;20050;-77
2023/04/19 01:29:21;;;;;;;14.23;10.00;;;7.70;99.90;;;;;;5022664;28;20049;-78
2023/04/19 01:31:52;;;;;;;15.03;10.10;;;7.70;99.90;;;;;;5020712;28;20474;-77
2023/04/19 01:34:22;;;;;;;14.30;10.70;;;7.60;99.90;;;;;;5012346;28;20042;-77
2023/04/19 01:36:48;;;;;;;14.90;10.10;;;7.60;99.90;;;;;;5015174;28;20420;-77
2023/04/19 01:39:14;;;;;;;14.10;10.10;;;7.60;99.90;;;;;;5020102;28;20397;-77
2023/04/19 01:41:39;;;;;;;15.27;10.30;;;7.60;99.90;;;;;;5020965;28;20034;-77
2023/04/19 01:44:05;;;;;;;12.03;10.10;;;7.60;99.90;;;;;;5012608;28;20048;-77
2023/04/19 01:46:31;;;;;;;13.20;10.17;;;7.50;99.90;;;;;;5008443;28;20104;-77
2023/04/19 01:48:57;;;;;;;15.67;10.10;;;7.50;99.90;;;;;;5022909;28;20041;-76
2023/04/19 01:51:22;;;;;;;14.20;10.40;;;7.50;99.90;;;;;;5001484;28;20131;-77
2023/04/19 01:53:52;;;;;;;13.63;10.67;;;7.40;99.90;;;;;;5012717;28;20042;-78
2023/04/19 01:56:19;;;;;;;16.77;10.77;;;7.40;99.90;;;;;;5003070;28;20634;-78
2023/04/19 01:58:46;;;;;;;18.43;12.20;;;7.30;99.90;;;;;;5012357;28;20072;-77
2023/04/19 02:01:11;;;;;;;15.87;12.00;;;7.30;99.90;;;;;;5018248;28;20038;-77
2023/04/19 02:03:39;;;;;;;14.27;12.07;;;7.20;99.90;;;;;;5003621;28;20038;-77
2023/04/19 02:06:05;;;;;;;19.13;12.97;;;7.20;99.90;;;;;;5010165;28;20041;-77
2023/04/19 02:08:31;;;;;;;17.07;12.17;;;7.20;99.90;;;;;;4997275;28;20100;-77
2023/04/19 02:10:57;;;;;;;19.17;12.67;;;7.10;99.90;;;;;;5012367;28;20033;-77
2023/04/19 02:13:23;;;;;;;21.50;13.23;;;7.10;99.90;;;;;;5010802;28;20037;-77
2023/04/19 02:15:49;;;;;;;17.17;12.80;;;7.10;99.90;;;;;;5003472;28;20029;-77
2023/04/19 02:18:16;;;;;;;17.27;12.83;;;7.10;99.90;;;;;;5015131;28;20464;-78
2023/04/19 02:20:42;;;;;;;16.93;12.57;;;7.00;99.90;;;;;;5023038;28;20418;-77
2023/04/19 02:23:08;;;;;;;21.00;13.37;;;7.00;99.90;;;;;;5001121;28;20087;-77
2023/04/19 02:25:33;;;;;;;19.17;12.73;;;7.00;99.90;;;;;;5016448;28;20544;-77
2023/04/19 02:27:59;;;;;;;16.17;12.33;;;7.00;99.90;;;;;;5012621;28;20513;-77
2023/04/19 02:30:25;;;;;;;19.30;12.57;;;6.90;99.90;;;;;;4992057;28;20061;-77
2023/04/19 02:32:51;;;;;;;16.10;12.57;;;6.90;99.90;;;;;;5013737;28;20428;-77
2023/04/19 02:35:16;;;;;;;19.17;12.67;;;6.90;99.90;;;;;;5032437;28;20057;-77
2023/04/19 02:37:43;;;;;;;17.83;13.47;;;6.90;99.90;;;;;;4988991;28;20587;-77
2023/04/19 02:40:09;;;;;;;18.40;12.53;;;6.80;99.90;;;;;;4987702;28;20412;-78
2023/04/19 02:42:35;;;;;;;19.53;13.17;;;6.80;99.90;;;;;;4979425;28;20061;-77
2023/04/19 02:45:01;;;;;;;15.97;12.50;;;6.80;99.90;;;;;;4996227;28;20056;-77
2023/04/19 02:47:26;;;;;;;17.77;13.07;;;6.80;99.90;;;;;;5001159;28;20117;-78
2023/04/19 02:49:52;;;;;;;17.53;12.77;;;6.70;99.90;;;;;;5009341;28;20061;-77
2023/04/19 02:52:18;;;;;;;16.40;12.70;;;6.70;99.90;;;;;;5030875;28;20577;-77
2023/04/19 02:54:44;;;;;;;18.23;12.50;;;6.70;99.90;;;;;;5026073;28;20037;-77
2023/04/19 02:57:09;;;;;;;20.50;13.30;;;6.70;99.90;;;;;;4999775;28;20059;-76
2023/04/19 02:59:35;;;;;;;18.03;12.00;;;6.60;99.90;;;;;;5005521;28;20069;-77
2023/04/19 03:02:01;;;;;;;16.23;12.27;;;6.60;99.90;;;;;;5013502;28;20037;-77
2023/04/19 03:04:30;;;;;;;17.37;12.20;;;6.60;99.90;;;;;;5017480;28;20071;-77
2023/04/19 03:06:55;;;;;;;14.47;11.40;;;6.50;99.90;;;;;;5025094;28;20104;-77
2023/04/19 03:09:21;;;;;;;16.30;11.47;;;6.50;99.90;;;;;;5011373;28;20716;-76
2023/04/19 03:11:47;;;;;;;17.20;11.37;;;6.50;99.90;;;;;;5008444;28;20629;-77
2023/04/19 03:14:12;;;;;;;14.73;11.47;;;6.50;99.90;;;;;;5014885;28;20038;-77
2023/04/19 03:16:38;;;;;;;17.43;11.67;;;6.50;99.90;;;;;;5020884;28;20576;-77
2023/04/19 03:19:04;;;;;;;16.03;10.47;;;6.50;99.90;;;;;;4994221;28;20073;-77
2023/04/19 03:21:29;;;;;;;16.80;11.20;;;6.50;99.90;;;;;;5015573;28;20053;-77
2023/04/19 03:23:55;;;;;;;13.83;10.63;;;6.40;99.90;;;;;;5011401;28;20054;-77
2023/04/19 03:26:21;;;;;;;14.97;10.47;;;6.40;99.90;;;;;;4997207;28;20041;-77
2023/04/19 03:28:47;;;;;;;15.03;10.70;;;6.40;99.90;;;;;;5013025;28;20041;-77
2023/04/19 03:31:13;;;;;;;14.87;10.60;;;6.40;99.90;;;;;;4997796;28;20041;-78
2023/04/19 03:33:39;;;;;;;15.23;10.37;;;6.40;99.90;;;;;;5012556;28;20461;-76
2023/04/19 03:36:05;;;;;;;14.23;10.30;;;6.30;99.90;;;;;;5015403;28;20041;-77
2023/04/19 03:38:31;;;;;;;16.83;10.33;;;6.30;99.90;;;;;;5013769;28;20077;-77
2023/04/19 03:40:57;;;;;;;17.00;10.80;;;6.30;99.90;;;;;;4978685;28;20080;-77
2023/04/19 03:43:26;;;;;;;13.80;10.60;;;6.20;99.90;;;;;;4978465;28;20080;-77
2023/04/19 03:45:51;;;;;;;14.17;10.03;;;6.20;99.90;;;;;;4995778;28;20038;-77
2023/04/19 03:48:17;;;;;;;16.20;10.23;;;6.20;99.90;;;;;;4992232;28;20065;-76
2023/04/19 03:50:43;;;;;;;12.97;9.43;;;6.10;99.90;;;;;;4996012;28;20154;-77
2023/04/19 03:53:08;;;;;;;12.10;9.50;;;6.10;99.90;;;;;;5015379;28;20030;-77
2023/04/19 03:55:34;;;;;;;13.07;10.40;;;6.10;99.90;;;;;;4996008;28;20165;-76
2023/04/19 03:58:00;;;;;;;15.03;9.67;;;6.10;99.90;;;;;;5023400;28;20038;-76
2023/04/19 04:00:26;;;;;;;15.13;9.77;;;6.10;99.90;;;;;;5015059;28;20037;-76
2023/04/19 04:02:52;;;;;;;13.70;9.97;;;6.00;99.90;;;;;;5027677;28;20037;-77
2023/04/19 04:05:17;;;;;;;14.13;9.53;;;6.00;99.90;;;;;;5023060;28;20400;-76
2023/04/19 04:07:43;;;;;;;14.43;10.10;;;6.00;99.90;;;;;;5019108;28;20033;-76
2023/04/19 04:10:09;;;;;;;14.93;9.77;;;5.90;99.90;;;;;;5006531;28;20112;-76
2023/04/19 04:12:35;;;;;;;12.33;9.83;;;5.90;99.90;;;;;;5033279;28;20081;-76
2023/04/19 04:15:01;;;;;;;16.17;10.23;;;5.90;99.90;;;;;;5025029;28;20068;-76
2023/04/19 04:17:26;;;;;;;13.77;9.43;;;5.80;99.90;;;;;;5030373;28;20397;-77
2023/04/19 04:19:52;;;;;;;14.43;9.33;;;5.80;99.90;;;;;;5016680;28;20731;-77
2023/04/19 04:22:19;;;;;;;12.33;9.40;;;5.80;99.90;;;;;;5001024;28;20124;-77
2023/04/19 04:24:46;;;;;;;15.37;9.17;;;5.80;99.90;;;;;;5014170;28;20050;-76
2023/04/19 04:27:12;;;;;;;14.10;9.80;;;5.80;99.90;;;;;;5009800;28;20543;-76
2023/04/19 04:29:38;;;;;;;12.73;8.80;;;5.80;99.90;;;;;;4977622;28;20086;-77
2023/04/19 04:32:09;;;;;;;13.97;9.87;;;5.70;99.90;;;;;;5007678;28;20099;-79
2023/04/19 04:34:36;;;;;;;13.27;9.27;;;5.70;99.90;;;;;;5007008;28;20049;-77
2023/04/19 04:37:02;;;;;;;12.50;8.80;;;5.70;99.90;;;;;;5010362;28;20045;-76
2023/04/19 04:39:29;;;;;;;13.60;9.00;;;5.70;99.90;;;;;;5016433;28;20033;-76
2023/04/19 04:41:56;;;;;;;14.00;8.63;;;5.70;99.90;;;;;;5033226;28;20428;-76
2023/04/19 04:44:22;;;;;;;15.77;9.23;;;5.70;99.90;;;;;;5014447;28;20064;-77
2023/04/19 04:46:48;;;;;;;12.50;9.07;;;5.60;99.90;;;;;;5032117;28;20052;-77
2023/04/19 04:49:14;;;;;;;13.53;8.90;;;5.60;99.90;;;;;;4998663;28;20120;-77
2023/04/19 04:51:40;;;;;;;11.87;8.87;;;5.60;99.90;;;;;;5030971;28;20404;-76
2023/04/19 04:54:05;;;;;;;17.37;10.03;;;5.60;99.90;;;;;;5007598;28;20573;-76
2023/04/19 04:56:31;;;;;;;11.27;8.63;;;5.60;99.90;;;;;;5020165;28;20085;-77
2023/04/19 04:58:58;;;;;;;12.93;9.00;;;5.60;99.90;;;;;;5021750;28;20037;-77
2023/04/19 05:01:23;;;;;;;11.67;8.40;;;5.60;99.90;;;;;;5011006;28;20046;-77
2023/04/19 05:03:50;;;;;;;11.87;8.73;;;5.60;99.90;;;;;;5015956;28;20043;-77
2023/04/19 05:06:16;;;;;;;11.53;8.27;;;5.60;99.90;;;;;;4998698;28;20474;-77
2023/04/19 05:08:43;;;;;;;10.63;8.13;;;5.60;99.90;;;;;;5028405;28;20063;-76
2023/04/19 05:11:09;;;;;;;11.50;8.10;;;5.60;99.90;;;;;;5009390;28;20046;-77
2023/04/19 05:13:35;;;;;;;14.13;8.37;;;5.60;99.90;;;;;;5032054;28;20038;-77
2023/04/19 05:16:01;;;;;;;10.77;8.37;;;5.60;99.90;;;;;;5023301;28;20060;-77
2023/04/19 05:18:26;;;;;;;13.60;8.23;;;5.70;99.90;;;;;;5017082;28;20038;-76
2023/04/19 05:20:52;;;;;;;10.47;7.97;;;5.70;99.90;;;;;;4984085;28;20033;-77
2023/04/19 05:23:18;;;;;;;12.77;8.00;;;5.70;99.90;;;;;;5027418;28;20114;-77
2023/04/19 05:25:43;;;;;;;11.00;7.80;;;5.70;99.90;;;;;;5021674;28;20045;-78
2023/04/19 05:28:09;;;;;;;12.17;8.10;;;5.70;99.90;;;;;;5023163;28;20083;-77
2023/04/19 05:30:35;;;;;;;12.53;8.57;;;5.70;99.90;;;;;;5033645;28;20076;-77
2023/04/19 05:33:01;;;;;;;11.27;8.03;;;5.80;99.90;;;;;;5002400;28;20109;-77
2023/04/19 05:35:26;;;;;;;10.70;7.30;;;5.80;99.90;;;;;;5031149;28;20041;-77
2023/04/19 05:37:52;;;;;;;11.57;7.80;;;5.80;99.90;;;;;;5005223;28;20030;-76
2023/04/19 05:40:18;;;;;;;11.17;7.77;;;5.80;99.90;;;;;;5024701;28;20128;-77
2023/04/19 05:42:44;;;;;;;12.60;7.97;;;5.90;99.90;;;;;;5022232;28;20065;-77
2023/04/19 05:45:10;;;;;;;10.33;7.60;;;5.90;99.90;;;;;;5028601;28;20041;-77
2023/04/19 05:47:36;;;;;;;9.70;7.10;;;6.00;99.90;;;;;;5009618;28;20441;-77
2023/04/19 05:50:02;;;;;;;11.93;7.60;;;6.00;99.90;;;;;;5012450;28;20117;-77
2023/04/19 05:52:28;;;;;;;8.40;6.80;;;6.10;99.90;;;;;;4976503;28;20045;-77
2023/04/19 05:54:54;;;;;;;9.20;6.83;;;6.20;99.90;;;;;;5047856;28;20045;-77
2023/04/19 05:57:20;;;;;;;9.43;7.27;;;6.20;99.90;;;;;;5011523;28;20058;-77
2023/04/19 05:59:46;;;;;;;9.67;7.00;;;6.30;99.90;;;;;;5015277;28;20044;-78
2023/04/19 06:02:11;;;;;;;12.07;7.03;;;6.30;99.90;;;;;;5018716;28;20583;-77
2023/04/19 06:04:37;;;;;;;10.43;7.27;;;6.40;99.90;;;;;;5015265;28;20125;-78
2023/04/19 06:07:03;;;;;;;9.33;6.47;;;6.40;99.90;;;;;;5009233;28;20048;-77
2023/04/19 06:09:28;;;;;;;10.30;6.73;;;6.50;99.90;;;;;;4984821;28;20477;-79
2023/04/19 06:11:55;;;;;;;9.20;6.00;;;6.50;99.90;;;;;;4992017;28;20038;-77
2023/04/19 06:14:21;;;;;;;7.77;5.97;;;6.60;99.90;;;;;;5027199;28;20049;-76
2023/04/19 06:16:47;;;;;;;8.43;6.40;;;6.60;99.90;;;;;;5032329;28;20037;-77
2023/04/19 06:19:13;;;;;;;11.03;6.37;;;6.70;99.90;;;;;;5016124;28;20362;-77
2023/04/19 06:21:38;;;;;;;9.33;6.10;;;6.70;99.90;;;;;;5022098;28;20046;-77
2023/04/19 06:24:07;;;;;;;9.03;6.60;;;6.80;99.90;;;;;;5027371;28;20041;-76
2023/04/19 06:26:33;;;;;;;9.57;5.87;;;6.90;99.90;;;;;;4998999;28;20055;-76
2023/04/19 06:28:58;;;;;;;9.07;5.90;;;7.00;99.90;;;;;;5006301;28;20046;-77
2023/04/19 06:31:24;;;;;;;8.17;5.77;;;7.00;99.90;;;;;;5028343;28;20033;-78
2023/04/19 06:33:50;;;;;;;7.97;5.43;;;7.10;99.90;;;;;;5014235;28;20096;-77
2023/04/19 06:36:16;;;;;;;9.20;5.23;;;7.10;99.90;;;;;;5021991;28;20041;-77
2023/04/19 06:38:43;;;;;;;8.97;5.60;;;7.20;99.90;;;;;;5026256;28;20384;-79
2023/04/19 06:41:09;;;;;;;5.83;5.00;;;7.20;99.90;;;;;;5025910;28;20112;-80
2023/04/19 06:43:35;;;;;;;8.80;5.20;;;7.30;99.90;;;;;;5030594;28;20049;-77
2023/04/19 06:46:03;;;;;;;8.30;5.20;;;7.40;99.90;;;;;;5016574;28;20045;-77
2023/04/19 06:48:29;;;;;;;6.73;5.20;;;7.50;99.90;;;;;;5023938;28;21622;-78
2023/04/19 06:50:55;;;;;;;8.40;4.60;;;7.60;99.90;;;;;;5025125;28;20386;-78
2023/04/19 06:53:21;;;;;;;6.97;5.60;;;7.60;99.90;;;;;;5029135;28;20175;-78
2023/04/19 06:55:57;;;;;;;8.67;5.53;;;7.70;99.90;;;;;;5004535;28;20129;-77
2023/04/19 06:58:22;;;;;;;6.93;5.50;;;7.80;99.90;;;;;;5008330;28;20494;-78
2023/04/19 07:00:48;;;;;;;8.53;4.93;;;7.80;99.90;;;;;;5008823;28;20099;-78
2023/04/19 07:03:15;;;;;;;6.77;5.13;;;7.90;99.90;;;;;;5013024;28;20103;-77
2023/04/19 07:05:41;;;;;;;5.27;4.57;;;7.90;99.90;;;;;;5024227;28;20041;-78
2023/04/19 07:08:12;;;;;;;7.15;4.80;;;8.00;99.90;;;;;;5028012;28;20095;-78
2023/04/19 07:10:38;;;;;;;6.73;4.33;;;8.10;99.90;;;;;;5020669;28;20124;-78
2023/04/19 07:13:04;;;;;;;5.50;4.20;;;8.20;99.90;;;;;;5011842;28;20510;-78
2023/04/19 07:15:30;;;;;;;5.63;3.90;;;8.30;99.90;;;;;;4990394;28;20041;-80
2023/04/19 07:17:55;;;;;;;8.27;4.30;;;8.40;99.90;;;;;;5004897;28;20034;-78
2023/04/19 07:20:21;;;;;;;6.57;3.73;;;8.40;99.90;;;;;;4994758;28;20145;-78
2023/04/19 07:22:47;;;;;;;6.10;3.70;;;8.50;99.90;;;;;;4996889;28;20045;-77
2023/04/19 07:25:13;;;;;;;5.50;3.77;;;8.60;99.90;;;;;;5017009;28;20048;-78
2023/04/19 07:27:40;;;;;;;4.70;3.50;;;8.70;99.90;;;;;;5013974;28;20046;-77
2023/04/19 07:30:06;;;;;;;6.77;4.17;;;8.80;99.90;;;;;;4970738;28;20056;-78
2023/04/19 07:32:32;;;;;;;7.40;3.53;;;8.80;99.90;;;;;;5001953;28;20037;-77
2023/04/19 07:34:58;;;;;;;3.97;3.53;;;8.90;99.90;;;;;;5003424;28;20046;-80
2023/04/19 07:37:23;;;;;;;4.70;3.90;;;9.00;99.90;;;;;;5003389;28;20049;-79
2023/04/19 07:39:49;;;;;;;6.00;3.60;;;9.00;99.90;;;;;;4986230;28;20121;-79
2023/04/19 07:42:15;;;;;;;5.83;3.93;;;9.10;99.90;;;;;;4970023;28;20065;-78
2023/04/19 07:44:40;;;;;;;4.47;3.70;;;9.30;99.90;;;;;;5003871;28;20492;-78
2023/04/19 07:47:06;;;;;;;4.17;3.37;;;9.40;99.90;;;;;;5002079;28;20874;-78
2023/04/19 07:49:33;;;;;;;6.63;4.10;;;9.50;99.90;;;;;;4969826;28;20411;-79
2023/04/19 07:52:06;;;;;;;6.63;4.30;;;9.50;99.90;;;;;;4954114;28;20041;-78
2023/04/19 07:54:32;;;;;;;4.87;3.70;;;9.60;99.90;;;;;;5003355;28;20052;-79
2023/04/19 07:56:58;;;;;;;5.83;4.03;;;9.70;99.90;;;;;;4954304;28;20042;-77
2023/04/19 07:59:24;;;;;;;6.50;4.03;;;9.80;99.90;;;;;;4986394;28;20506;-80
2023/04/19 08:01:50;;;;;;;5.30;3.50;;;9.90;99.90;;;;;;5002955;28;20353;-78
2023/04/19 08:04:18;;;;;;;5.13;4.17;;;10.00;99.90;;;;;;4987021;28;21394;-78
2023/04/19 08:06:44;;;;;;;6.93;3.97;;;10.10;99.90;;;;;;4967157;28;20044;-78
2023/04/19 08:09:10;;;;;;;5.20;4.07;;;10.30;99.90;;;;;;5003876;28;20406;-80
2023/04/19 08:11:36;;;;;;;8.33;4.47;;;10.30;99.90;;;;;;4987372;28;20042;-77
2023/04/19 08:14:02;;;;;;;4.93;4.03;;;10.30;99.90;;;;;;4970926;28;20029;-81
2023/04/19 08:16:28;;;;;;;6.53;3.67;;;10.40;99.90;;;;;;4966835;28;20069;-78
2023/04/19 08:18:54;;;;;;;4.60;3.77;;;10.40;99.90;;;;;;4971553;28;20478;-80
2023/04/19 08:21:20;;;;;;;5.47;3.77;;;10.40;99.90;;;;;;4953611;28;20574;-80
2023/04/19 08:23:46;;;;;;;5.93;3.93;;;10.50;99.90;;;;;;4986102;28;20049;-79
2023/04/19 08:26:11;;;;;;;3.80;3.03;;;10.60;99.90;;;;;;5001600;28;20037;-79
2023/04/19 08:28:37;;;;;;;3.80;3.20;;;10.60;99.90;;;;;;4985366;28;20037;-77
2023/04/19 08:31:06;;;;;;;5.87;3.30;;;10.80;99.90;;;;;;4980601;28;20038;-80
2023/04/19 08:33:32;;;;;;;5.87;3.63;;;10.80;99.90;;;;;;4986212;28;20176;-78
2023/04/19 08:35:58;;;;;;;4.53;3.37;;;10.90;99.90;;;;;;4985701;28;20045;-77
2023/04/19 08:38:24;;;;;;;4.87;3.10;;;11.10;99.90;;;;;;5003017;28;20045;-79
2023/04/19 08:40:56;;;;;;;7.27;3.07;;;11.30;99.30;;;;;;4969826;28;20046;-79
2023/04/19 08:43:24;;;;;;;5.90;3.43;;;11.40;99.70;;;;;;5005123;28;20042;-79
2023/04/19 08:45:51;;;;;;;3.90;3.07;;;11.50;94.10;;;;;;4990145;28;20053;-80
2023/04/19 08:48:17;;;;;;;2.93;2.73;;;11.50;91.60;;;;;;5006487;28;20073;-79
2023/04/19 08:50:45;;;;;;;5.47;3.03;;;11.50;91.30;;;;;;5006001;28;20045;-79
2023/04/19 08:53:11;;;;;;;3.10;2.80;;;11.50;86.40;;;;;;5003503;28;20053;-79
2023/04/19 08:55:42;;;;;;;6.07;2.70;;;11.70;88.10;;;;;;5006492;28;20050;-79
2023/04/19 08:58:08;;;;;;;4.93;2.85;;;11.60;88.10;;;;;;5006435;28;20521;-79
2023/04/19 09:00:37;;;;;;;3.77;2.80;;;11.80;90.10;;;;;;5007724;28;20076;-80
2023/04/19 09:03:06;;;;;;;4.00;2.67;;;11.90;83.30;;;;;;5006298;28;20041;-79
2023/04/19 09:05:32;;;;;;;3.40;2.87;;;11.90;81.90;;;;;;5005549;28;20049;-79
2023/04/19 09:08:21;;;;;;;4.53;2.80;;;12.00;84.50;;;;;;5015009;28;20042;-79
2023/04/19 09:10:59;;;;;;;7.47;2.67;;;12.10;79.90;;;;;;5006678;28;20045;-79
2023/04/19 09:13:26;;;;;;;3.13;2.70;;;12.30;79.60;;;;;;5005802;28;20735;-80
2023/04/19 09:15:55;;;;;;;3.90;2.60;;;12.40;83.80;;;;;;5013084;28;20076;-80
2023/04/19 09:18:23;;;;;;;10.47;3.27;;;12.40;73.90;;;;;;5014473;28;20104;-79
2023/04/19 09:20:55;;;;;;;4.30;2.73;;;12.20;70.20;;;;;;5019959;28;20041;-80
2023/04/19 09:23:22;;;;;;;;;;;12.20;70.60;;;;;;5018916;28;20046;-79
2023/04/19 09:25:52;;;;;;;4.07;2.80;;;12.30;70.50;;;;;;5006929;28;20296;-79
2023/04/19 09:28:18;;;;;;;3.33;2.83;;;12.40;73.50;;;;;;5012640;28;20513;-80
2023/04/19 09:30:43;;;;;;;4.70;2.50;;;12.50;72.00;;;;;;5008617;28;20046;-80
2023/04/19 09:33:09;;;;;;;4.43;3.00;;;12.60;71.60;;;;;;5013949;28;20505;-79
2023/04/19 09:35:46;;;;;;;3.53;2.60;;;12.40;70.10;;;;;;5006671;28;20049;-78
2023/04/19 09:38:13;;;;;;;3.30;2.73;;;12.60;71.70;;;;;;5017063;28;20044;-78
2023/04/19 09:40:40;;;;;;;4.17;2.40;;;12.80;72.90;;;;;;5018021;28;20121;-79
2023/04/19 09:43:06;;;;;;;2.87;2.40;;;13.00;72.00;;;;;;5012556;28;20045;-80
2023/04/19 09:45:58;;;;;;;3.93;2.63;;;12.90;69.20;;;;;;5014497;28;20038;-78
2023/04/19 09:48:24;;;;;;;5.63;2.35;;;12.90;67.50;;;;;;4997053;28;20051;-79
2023/04/19 09:50:58;;;;;;;3.67;2.60;;;12.90;67.20;;;;;;5014240;28;20048;-78
2023/04/19 09:53:25;;;;;;;2.97;2.40;;;12.80;65.80;;;;;;4982399;28;20057;-79
2023/04/19 09:55:52;;;;;;;2.60;2.28;;;12.90;66.10;;;;;;4986961;28;20128;-78
2023/04/19 09:58:19;;;;;;;2.80;2.33;;;13.10;66.80;;;;;;4986904;28;20049;-79
2023/04/19 10:00:46;;;;;;;5.00;2.42;;;13.20;66.00;;;;;;5015952;28;20772;-78
2023/04/19 10:03:14;;;;;;;3.25;2.30;;;13.20;65.60;;;;;;5029138;28;20037;-79
2023/04/19 10:05:42;;;;;;;3.60;2.28;;;13.20;64.80;;;;;;5004865;28;20072;-78
2023/04/19 10:08:09;;;;;;;8.18;2.50;;;13.30;65.40;;;;;;5010635;28;20045;-78
2023/04/19 10:10:35;;;;;;;3.13;2.50;;;13.40;65.70;;;;;;5010441;28;20048;-80
2023/04/19 10:13:08;;;;;;;3.83;2.50;;;13.60;64.80;;;;;;4991928;28;20038;-79
2023/04/19 10:15:35;;;;;;;2.97;2.47;;;13.60;63.50;;;;;;5000608;28;20128;-79
2023/04/19 10:18:05;;;;;;;3.97;2.33;;;13.50;63.50;;;;;;4992624;28;20184;-78
2023/04/19 10:20:52;;;;;;;3.97;2.30;;;13.70;63.80;;;;;;4986766;28;20501;-80
2023/04/19 10:23:19;;;;;;;3.40;2.40;;;13.40;59.90;;;;;;5000999;28;20030;-78
2023/04/19 10:25:46;;;;;;;3.78;2.63;;;13.40;61.70;;;;;;5005100;28;20044;-78
2023/04/19 10:28:13;;;;;;;2.88;2.47;;;13.40;61.30;;;;;;5004592;28;20034;-79
2023/04/19 10:30:59;;;;;;;3.38;2.35;;;13.50;62.30;;;;;;4987445;28;20065;-78
2023/04/19 10:33:27;;;;;;;3.15;2.63;;;13.60;62.10;;;;;;4988124;28;20089;-78
2023/04/19 10:35:56;;;;;;;2.53;2.20;;;13.70;62.80;;;;;;4987405;28;20092;-80
2023/04/19 10:38:38;;;;;;;3.47;2.35;;;13.90;62.20;;;;;;5004579;28;20053;-81
2023/04/19 10:41:10;;;;;;;4.57;2.53;;;13.70;59.90;;;;;;5004008;28;20041;-77
2023/04/19 10:43:36;;;;;;;;;;;13.70;60.00;;;;;;5004240;28;20129;-79
2023/04/19 10:46:34;;;;;;;5.93;2.35;;;13.60;60.90;;;;;;4987953;28;19932;-80
2023/04/19 10:49:02;;;;;;;4.20;2.25;;;13.70;60.00;;;;;;5003707;28;20050;-79
2023/04/19 10:51:34;;;;;;;3.13;2.15;;;13.90;61.40;;;;;;4988157;28;20042;-78
2023/04/19 10:54:00;;;;;;;;;;;14.00;60.90;;;;;;5006268;28;20034;-78
2023/04/19 10:56:32;;;;;;;3.10;2.28;;;14.10;60.50;;;;;;4987690;28;19972;-80
2023/04/19 11:01:38;;;;;;;7.65;2.10;;;14.30;61.00;;;;;;5002989;28;20054;-78
2023/04/19 11:04:16;;;;;;;2.42;1.80;;;14.30;60.00;;;;;;5004319;28;20050;-80
2023/04/19 11:06:51;;;;;;;2.38;2.15;;;14.10;59.10;;;;;;4987855;28;20045;-78
2023/04/19 11:09:33;;;;;;;3.83;2.10;;;14.20;59.20;;;;;;4987070;28;20115;-78
2023/04/19 11:12:07;;;;;;;4.53;2.30;;;14.20;59.50;;;;;;5002598;28;20064;-78
2023/04/19 11:14:38;;;;;;;4.13;2.60;;;14.30;60.80;;;;;;5003869;28;20092;-80
2023/04/19 11:17:19;;;;;;;3.08;2.50;;;14.40;60.70;;;;;;5003305;28;20107;-78
2023/04/19 11:19:59;;;;;;;2.88;2.10;;;14.60;61.30;;;;;;5004793;28;20042;-80
2023/04/19 11:22:32;;;;;;;6.38;2.10;;;14.50;59.10;;;;;;4986692;28;20038;-81
2023/04/19 11:25:16;;;;;;;3.70;2.35;;;14.50;59.20;;;;;;5019823;28;20034;-80
2023/04/19 11:27:44;;;;;;;4.38;2.42;;;14.30;56.90;;;;;;5004599;28;20772;-79
2023/04/19 11:30:18;;;;;;;3.90;2.50;;;14.20;58.30;;;;;;5002780;28;20065;-77
2023/04/19 11:32:49;;;;;;;4.75;2.45;;;14.20;58.50;;;;;;5001965;28;20038;-77
2023/04/19 11:35:21;;;;;;;3.95;2.42;;;14.20;58.70;;;;;;4984382;28;20046;-79
2023/04/19 11:37:47;;;;;;;3.10;2.70;;;14.20;58.60;;;;;;5001842;28;20037;-80
2023/04/19 11:40:17;;;;;;;2.70;2.40;;;14.30;59.00;;;;;;5002200;28;20104;-80
2023/04/19 11:42:43;;;;;;;4.68;2.70;;;14.30;59.40;;;;;;5002167;28;20042;-80
2023/04/19 11:45:10;;;;;;;5.07;3.00;;;14.30;59.70;;;;;;4993310;28;20052;-80
2023/04/19 11:47:47;;;;;;;7.13;3.42;;;14.40;59.30;;;;;;5006919;28;20099;-79
2023/04/19 11:50:33;;;;;;;4.20;2.70;;;14.40;59.70;;;;;;5017301;28;20042;-78
2023/04/19 11:53:08;;;;;;;8.40;3.03;;;14.50;59.30;;;;;;5028973;28;20041;-80
2023/04/19 11:55:34;;;;;;;4.00;3.45;;;14.40;59.10;;;;;;5028954;28;20065;-79
2023/04/19 11:58:00;;;;;;;5.28;3.20;;;14.20;59.50;;;;;;5012900;28;20120;-79
2023/04/19 12:00:27;;;;;;;5.40;3.63;;;14.20;60.60;;;;;;5027913;28;20671;-80
2023/04/19 12:02:54;;;;;;;4.63;3.35;;;14.20;60.80;;;;;;4990786;28;20104;-81
2023/04/19 12:05:20;;;;;;;4.88;3.30;;;14.30;61.20;;;;;;4991028;28;20046;-79
2023/04/19 12:08:06;;;;;;;4.80;3.30;;;14.40;61.00;;;;;;5016288;28;20425;-80
2023/04/19 12:10:33;;;;;;;6.07;3.60;;;14.50;61.00;;;;;;4987869;28;20041;-78
2023/04/19 12:12:59;;;;;;;6.30;3.70;;;14.30;60.10;;;;;;5013589;28;20041;-78
2023/04/19 12:15:45;;;;;;;3.75;3.30;;;14.40;60.40;;;;;;5025711;28;20067;-79
2023/04/19 12:18:13;;;;;;;6.47;3.58;;;14.40;61.10;;;;;;5011728;28;20112;-79
2023/04/19 12:20:45;;;;;;;5.15;3.65;;;14.50;60.80;;;;;;4992553;28;20549;-79
2023/04/19 12:23:12;;;;;;;3.67;3.35;;;14.50;61.10;;;;;;5025241;28;20429;-80
2023/04/19 12:25:39;;;;;;;3.88;3.55;;;14.60;61.10;;;;;;5032548;28;20200;-80
2023/04/19 12:28:05;;;;;;;4.13;3.38;;;14.60;61.10;;;;;;5009826;28;20049;-79
2023/04/19 12:30:31;;;;;;;4.55;3.42;;;14.70;61.30;;;;;;5020224;28;20042;-79
2023/04/19 12:32:58;;;;;;;8.55;3.60;;;14.70;61.80;;;;;;5009912;28;20606;-80
2023/04/19 12:35:26;;;;;;;5.10;3.17;;;14.80;62.20;;;;;;5016666;28;20049;-79
2023/04/19 12:37:52;;;;;;;5.05;3.53;;;14.70;62.10;;;;;;5016844;28;20779;-82
2023/04/19 12:40:24;;;;;;;4.15;3.13;;;14.80;62.90;;;;;;5027080;28;20046;-78
2023/04/19 12:42:50;;;;;;;5.18;3.38;;;14.70;62.30;;;;;;5005024;28;20552;-81
2023/04/19 12:45:17;;;;;;;3.60;3.10;;;14.90;62.70;;;;;;5009820;28;20061;-80
2023/04/19 12:47:44;;;;;;;4.50;3.25;;;15.00;61.80;;;;;;4992563;28;20145;-79
2023/04/19 12:50:12;;;;;;;4.57;3.40;;;14.90;61.30;;;;;;5009375;28;20135;-78
2023/04/19 12:52:37;;;;;;;7.22;3.55;;;14.70;61.30;;;;;;5008787;28;20065;-79